createdAt,value
2018-09-04T00:00:05.803Z,19.75
2018-09-04T00:03:09.087Z,19.73
2018-09-04T00:06:13.044Z,19.71
2018-09-04T00:09:16.381Z,19.65
2018-09-04T00:12:19.700Z,19.60
2018-09-04T00:15:23.100Z,19.55
2018-09-04T00:18:26.500Z,19.56
2018-09-04T00:21:29.744Z,19.57
2018-09-04T00:24:32.952Z,19.54
2018-09-04T00:27:36.301Z,19.48
2018-09-04T00:30:39.551Z,19.43
2018-09-04T00:33:43.248Z,19.43
2018-09-04T00:36:46.569Z,19.40
2018-09-04T00:39:50.490Z,19.28
2018-09-04T00:42:53.777Z,19.26
2018-09-04T00:45:57.046Z,19.16
2018-09-04T00:49:00.261Z,19.00
2018-09-04T00:52:03.473Z,18.93
2018-09-04T00:55:06.760Z,18.86
2018-09-04T00:58:10.061Z,18.79
2018-09-04T01:01:13.877Z,18.69
2018-09-04T01:04:17.199Z,18.60
2018-09-04T01:07:20.431Z,18.58
2018-09-04T01:10:23.759Z,18.61
2018-09-04T01:13:27.116Z,18.60
2018-09-04T01:16:30.315Z,18.56
2018-09-04T01:19:33.760Z,18.50
2018-09-04T01:22:37.063Z,18.44
2018-09-04T01:25:41.363Z,18.40
2018-09-04T01:28:44.843Z,18.36
2018-09-04T01:31:48.174Z,18.26
2018-09-04T01:34:51.527Z,18.17
2018-09-04T01:37:54.751Z,18.17
2018-09-04T01:40:58.054Z,18.20
2018-09-04T01:44:01.332Z,18.14
2018-09-04T01:47:04.540Z,18.09
2018-09-04T01:50:07.888Z,18.03
2018-09-04T01:53:11.485Z,17.99
2018-09-04T01:56:16.592Z,18.06
2018-09-04T01:59:19.875Z,18.10
2018-09-04T02:02:23.079Z,18.09
2018-09-04T02:05:26.230Z,18.10
2018-09-04T02:08:29.590Z,17.99
2018-09-04T02:11:32.861Z,17.84
2018-09-04T02:14:36.162Z,17.81
2018-09-04T02:17:39.528Z,17.70
2018-09-04T02:20:43.155Z,17.67
2018-09-04T02:23:46.466Z,17.68
2018-09-04T02:26:49.766Z,17.61
2018-09-04T02:29:52.964Z,17.60
2018-09-04T02:32:56.327Z,17.55
2018-09-04T02:35:59.576Z,17.54
2018-09-04T02:39:03.203Z,17.56
2018-09-04T02:42:07.466Z,17.50
2018-09-04T02:45:10.815Z,17.51
2018-09-04T02:48:15.511Z,17.59
2018-09-04T02:51:18.827Z,17.67
2018-09-04T02:54:22.164Z,17.72
2018-09-04T02:57:26.431Z,17.75
2018-09-04T03:00:29.967Z,17.78
2018-09-04T03:03:33.239Z,17.79
2018-09-04T03:06:36.524Z,17.73
2018-09-04T03:09:39.810Z,17.61
2018-09-04T03:12:43.213Z,17.44
2018-09-04T03:15:46.415Z,17.34
2018-09-04T03:18:49.708Z,17.33
2018-09-04T03:21:52.909Z,17.43
2018-09-04T03:24:56.244Z,17.47
2018-09-04T03:27:59.353Z,17.51
2018-09-04T03:31:02.672Z,17.54
2018-09-04T03:34:05.900Z,17.53
2018-09-04T03:37:09.186Z,17.54
2018-09-04T03:40:13.275Z,17.58
2018-09-04T03:43:16.487Z,17.49
2018-09-04T03:46:19.783Z,17.48
2018-09-04T03:49:23.009Z,17.50
2018-09-04T03:52:26.246Z,17.43
2018-09-04T03:55:29.384Z,17.36
2018-09-04T03:58:33.617Z,17.35
2018-09-04T04:01:36.900Z,17.40
2018-09-04T04:04:40.320Z,17.43
2018-09-04T04:07:44.763Z,17.46
2018-09-04T04:10:48.016Z,17.41
2018-09-04T04:13:52.240Z,17.32
2018-09-04T04:16:55.415Z,17.31
2018-09-04T04:19:58.797Z,17.34
2018-09-04T04:23:02.011Z,17.34
2018-09-04T04:26:05.467Z,17.30
2018-09-04T04:29:08.707Z,17.28
2018-09-04T04:32:12.368Z,17.30
2018-09-04T04:35:15.664Z,17.32
2018-09-04T04:38:19.513Z,17.34
2018-09-04T04:41:23.744Z,17.37
2018-09-04T04:44:27.090Z,17.32
2018-09-04T04:47:35.615Z,17.28
2018-09-04T04:50:38.856Z,17.24
2018-09-04T04:53:43.543Z,17.20
2018-09-04T04:56:46.803Z,17.18
2018-09-04T04:59:49.975Z,17.20
2018-09-04T05:02:53.287Z,17.24
2018-09-04T05:05:56.834Z,17.27
2018-09-04T05:09:00.078Z,17.29
2018-09-04T05:12:03.638Z,17.28
2018-09-04T05:15:06.906Z,17.30
2018-09-04T05:18:10.058Z,17.26
2018-09-04T05:21:14.695Z,17.23
2018-09-04T05:24:17.901Z,17.21
2018-09-04T05:27:21.301Z,17.19
2018-09-04T05:30:24.444Z,17.17
2018-09-04T05:33:34.805Z,17.14
2018-09-04T05:36:38.171Z,17.14
2018-09-04T05:39:41.386Z,17.12
2018-09-04T05:42:50.245Z,17.11
2018-09-04T05:45:54.697Z,17.14
2018-09-04T05:48:58.576Z,17.17
2018-09-04T05:52:01.832Z,17.22
2018-09-04T05:55:05.504Z,17.26
2018-09-04T05:58:08.851Z,17.34
2018-09-04T06:01:12.573Z,17.31
2018-09-04T06:04:15.891Z,17.40
2018-09-04T06:07:19.245Z,17.46
2018-09-04T06:10:22.542Z,17.47
2018-09-04T06:13:25.808Z,17.53
2018-09-04T06:16:29.168Z,17.59
2018-09-04T06:19:32.475Z,17.64
2018-09-04T06:22:35.954Z,17.71
2018-09-04T06:25:39.110Z,17.65
2018-09-04T06:28:43.380Z,17.66
2018-09-04T06:31:46.620Z,17.64
2018-09-04T06:34:49.840Z,17.68
2018-09-04T06:37:53.150Z,17.66
2018-09-04T06:40:56.452Z,17.71
2018-09-04T06:43:59.617Z,17.75
2018-09-04T06:47:02.848Z,17.84
2018-09-04T06:50:06.254Z,17.94
2018-09-04T06:53:09.544Z,18.01
2018-09-04T06:56:13.427Z,18.14
2018-09-04T06:59:16.715Z,18.18
2018-09-04T07:02:19.933Z,18.23
2018-09-04T07:05:23.068Z,18.33
2018-09-04T07:08:26.303Z,18.48
2018-09-04T07:11:29.505Z,18.53
2018-09-04T07:14:32.842Z,18.52
2018-09-04T07:17:36.107Z,18.53
2018-09-04T07:20:39.408Z,18.54
2018-09-04T07:23:45.264Z,18.64
2018-09-04T07:26:48.581Z,18.64
2018-09-04T07:29:51.795Z,18.70
2018-09-04T07:32:55.162Z,18.85
2018-09-04T07:35:58.452Z,18.96
2018-09-04T07:39:01.747Z,19.06
2018-09-04T07:42:05.060Z,19.03
2018-09-04T07:45:08.672Z,19.11
2018-09-04T07:48:12.488Z,19.15
2018-09-04T07:51:15.681Z,19.10
2018-09-04T07:54:19.998Z,18.86
2018-09-04T07:57:23.257Z,18.83
2018-09-04T08:00:26.576Z,18.85
2018-09-04T08:03:29.710Z,18.74
2018-09-04T08:06:32.914Z,18.93
2018-09-04T08:09:36.134Z,19.13
2018-09-04T08:12:39.540Z,19.31
2018-09-04T08:15:43.547Z,19.47
2018-09-04T08:18:46.811Z,19.59
2018-09-04T08:21:50.140Z,19.70
2018-09-04T08:24:53.294Z,19.81
2018-09-04T08:27:56.671Z,19.87
2018-09-04T08:30:59.875Z,19.88
2018-09-04T08:34:03.084Z,19.94
2018-09-04T08:37:06.813Z,19.93
2018-09-04T08:40:10.316Z,19.84
2018-09-04T08:43:14.277Z,19.78
2018-09-04T08:46:17.909Z,20.16
2018-09-04T08:49:21.176Z,20.10
2018-09-04T08:52:24.478Z,20.12
2018-09-04T08:55:27.797Z,20.20
2018-09-04T08:58:31.396Z,20.37
2018-09-04T09:01:34.499Z,20.36
2018-09-04T09:04:37.815Z,20.54
2018-09-04T09:07:41.096Z,20.70
2018-09-04T09:10:45.261Z,20.56
2018-09-04T09:13:48.575Z,20.86
2018-09-04T09:16:51.916Z,20.85
2018-09-04T09:19:55.296Z,21.20
2018-09-04T09:22:58.603Z,21.26
2018-09-04T09:26:01.898Z,21.57
2018-09-04T09:29:05.157Z,21.68
2018-09-04T09:32:08.372Z,21.58
2018-09-04T09:35:12.626Z,21.65
2018-09-04T09:38:18.835Z,21.78
2018-09-04T09:41:22.049Z,22.05
2018-09-04T09:44:25.399Z,22.45
2018-09-04T09:47:30.610Z,22.52
2018-09-04T09:50:33.945Z,22.37
2018-09-04T09:53:37.330Z,22.02
2018-09-04T09:56:40.395Z,21.77
2018-09-04T09:59:45.124Z,21.82
2018-09-04T10:02:51.090Z,21.64
2018-09-04T10:05:54.689Z,21.59
2018-09-04T10:08:57.979Z,21.59
2018-09-04T10:12:01.274Z,21.46
2018-09-04T10:15:04.802Z,21.72
2018-09-04T10:18:07.987Z,22.06
2018-09-04T10:21:11.297Z,22.55
2018-09-04T10:24:15.676Z,22.87
2018-09-04T10:27:18.987Z,23.00
2018-09-04T10:30:22.312Z,23.05
2018-09-04T10:33:25.651Z,22.81
2018-09-04T10:36:28.804Z,22.83
2018-09-04T10:39:39.429Z,22.95
2018-09-04T10:42:43.563Z,23.08
2018-09-04T10:45:52.276Z,23.13
2018-09-04T10:48:55.484Z,23.00
2018-09-04T10:51:58.802Z,23.25
2018-09-04T10:55:02.100Z,23.30
2018-09-04T10:58:06.195Z,23.41
2018-09-04T11:01:09.415Z,23.40
2018-09-04T11:04:12.688Z,23.47
2018-09-04T11:07:16.167Z,23.52
2018-09-04T11:10:19.512Z,23.60
2018-09-04T11:13:22.787Z,23.63
2018-09-04T11:16:26.187Z,23.69
2018-09-04T11:19:29.359Z,23.66
2018-09-04T11:22:32.848Z,23.43
2018-09-04T11:25:36.102Z,23.70
2018-09-04T11:28:43.536Z,24.19
2018-09-04T11:31:46.863Z,24.50
2018-09-04T11:34:50.143Z,24.74
2018-09-04T11:37:53.397Z,24.71
2018-09-04T11:40:56.668Z,24.56
2018-09-04T11:43:59.929Z,24.23
2018-09-04T11:47:03.597Z,24.17
2018-09-04T11:50:06.856Z,24.15
2018-09-04T11:53:10.156Z,24.18
2018-09-04T11:56:17.499Z,24.07
2018-09-04T11:59:20.839Z,24.18
2018-09-04T12:02:27.355Z,24.44
2018-09-04T12:05:30.522Z,24.43
2018-09-04T12:08:34.424Z,24.63
2018-09-04T12:11:37.716Z,24.57
2018-09-04T12:14:41.123Z,24.86
2018-09-04T12:17:45.039Z,25.14
2018-09-04T12:20:52.596Z,25.13
2018-09-04T12:23:55.845Z,25.23
2018-09-04T12:26:59.131Z,25.37
2018-09-04T12:30:02.297Z,25.26
2018-09-04T12:33:05.743Z,25.25
2018-09-04T12:36:09.252Z,25.13
2018-09-04T12:39:13.584Z,25.04
2018-09-04T12:42:16.861Z,24.91
2018-09-04T12:45:20.039Z,25.15
2018-09-04T12:48:25.388Z,25.17
2018-09-04T12:51:28.699Z,25.48
2018-09-04T12:54:32.014Z,25.72
2018-09-04T12:57:35.299Z,25.80
2018-09-04T13:00:38.605Z,25.79
2018-09-04T13:03:41.996Z,25.62
2018-09-04T13:06:46.604Z,25.57
2018-09-04T13:09:49.841Z,25.68
2018-09-04T13:12:53.195Z,25.81
2018-09-04T13:15:57.942Z,25.91
2018-09-04T13:19:01.227Z,26.07
2018-09-04T13:22:04.839Z,26.34
2018-09-04T13:25:08.076Z,26.37
2018-09-04T13:28:11.299Z,26.28
2018-09-04T13:31:15.519Z,26.35
2018-09-04T13:34:18.892Z,26.54
2018-09-04T13:37:23.503Z,26.76
2018-09-04T13:40:26.998Z,26.89
2018-09-04T13:43:30.281Z,26.92
2018-09-04T13:46:33.548Z,26.81
2018-09-04T13:49:36.871Z,27.05
2018-09-04T13:52:40.047Z,27.25
2018-09-04T13:55:43.728Z,27.43
2018-09-04T13:58:47.134Z,27.17
2018-09-04T14:01:50.440Z,27.05
2018-09-04T14:04:53.591Z,27.01
2018-09-04T14:07:58.891Z,27.11
2018-09-04T14:11:02.160Z,27.38
2018-09-04T14:14:05.543Z,27.54
2018-09-04T14:17:12.768Z,27.30
2018-09-04T14:20:16.047Z,27.22
2018-09-04T14:23:19.387Z,27.43
2018-09-04T14:26:22.734Z,27.48
2018-09-04T14:29:54.486Z,27.80
2018-09-04T14:32:29.250Z,27.77
2018-09-04T14:35:32.557Z,27.69
2018-09-04T14:38:35.905Z,27.68
2018-09-04T14:41:39.186Z,27.80
2018-09-04T14:44:42.467Z,27.74
2018-09-04T14:47:45.770Z,27.76
2018-09-04T14:50:50.491Z,28.15
2018-09-04T14:53:53.668Z,28.35
2018-09-04T14:56:57.054Z,28.46
2018-09-04T15:00:00.296Z,28.46
2018-09-04T15:03:03.840Z,28.44
2018-09-04T15:06:07.081Z,28.40
2018-09-04T15:09:10.360Z,28.36
2018-09-04T15:12:13.761Z,28.43
2018-09-04T15:15:17.293Z,28.05
2018-09-04T15:18:21.591Z,27.73
2018-09-04T15:21:24.877Z,27.63
2018-09-04T15:24:28.240Z,27.43
2018-09-04T15:27:31.547Z,27.76
2018-09-04T15:30:35.817Z,27.94
2018-09-04T15:33:39.181Z,27.83
2018-09-04T15:36:42.311Z,28.00
2018-09-04T15:39:45.595Z,28.30
2018-09-04T15:42:50.063Z,28.60
2018-09-04T15:45:53.552Z,28.65
2018-09-04T15:49:02.574Z,28.65
2018-09-04T15:52:05.759Z,28.80
2018-09-04T15:55:09.049Z,28.85
2018-09-04T15:58:12.408Z,28.91
2018-09-04T16:01:15.819Z,28.66
2018-09-04T16:04:19.267Z,28.26
2018-09-04T16:07:22.850Z,27.79
2018-09-04T16:10:26.158Z,27.63
2018-09-04T16:13:29.440Z,27.81
2018-09-04T16:16:32.740Z,27.96
2018-09-04T16:19:36.030Z,28.17
2018-09-04T16:22:39.225Z,28.11
2018-09-04T16:25:42.525Z,27.65
2018-09-04T16:28:45.828Z,27.40
2018-09-04T16:31:49.016Z,27.37
2018-09-04T16:34:53.507Z,27.17
2018-09-04T16:37:56.732Z,27.00
2018-09-04T16:40:59.940Z,27.03
2018-09-04T16:44:03.731Z,26.81
2018-09-04T16:47:06.938Z,26.68
2018-09-04T16:50:10.099Z,26.57
2018-09-04T16:53:13.464Z,26.52
2018-09-04T16:56:16.757Z,26.32
2018-09-04T16:59:20.674Z,26.33
2018-09-04T17:02:23.959Z,26.24
2018-09-04T17:05:27.396Z,26.26
2018-09-04T17:08:30.651Z,26.25
2018-09-04T17:11:33.968Z,26.28
2018-09-04T17:14:37.245Z,26.20
2018-09-04T17:17:40.594Z,26.13
2018-09-04T17:20:43.970Z,26.12
2018-09-04T17:23:47.295Z,25.98
2018-09-04T17:26:51.796Z,25.96
2018-09-04T17:29:55.077Z,25.86
2018-09-04T17:32:58.288Z,25.70
2018-09-04T17:36:01.590Z,25.66
2018-09-04T17:39:06.213Z,25.73
2018-09-04T17:42:10.532Z,25.75
2018-09-04T17:45:13.892Z,25.77
2018-09-04T17:48:17.152Z,25.75
2018-09-04T17:51:22.511Z,25.75
2018-09-04T17:54:25.839Z,25.71
2018-09-04T17:57:29.043Z,25.71
2018-09-04T18:00:32.354Z,25.70
2018-09-04T18:03:35.684Z,25.63
2018-09-04T18:06:40.165Z,25.65
2018-09-04T18:09:43.487Z,25.68
2018-09-04T18:12:47.768Z,25.62
2018-09-04T18:15:51.811Z,25.52
2018-09-04T18:18:56.143Z,25.45
2018-09-04T18:21:59.389Z,25.45
2018-09-04T18:25:02.734Z,25.40
2018-09-04T18:28:06.125Z,25.34
2018-09-04T18:31:09.416Z,25.28
2018-09-04T18:34:12.826Z,25.21
2018-09-04T18:37:16.136Z,25.17
2018-09-04T18:40:19.412Z,25.17
2018-09-04T18:43:23.722Z,25.18
2018-09-04T18:46:27.019Z,25.15
2018-09-04T18:49:30.339Z,25.09
2018-09-04T18:52:33.487Z,25.05
2018-09-04T18:55:36.896Z,25.04
2018-09-04T18:58:40.233Z,25.02
2018-09-04T19:01:43.501Z,24.99
2018-09-04T19:04:46.799Z,24.96
2018-09-04T19:07:52.282Z,24.89
2018-09-04T19:10:55.572Z,24.88
2018-09-04T19:13:58.884Z,24.89
2018-09-04T19:17:02.175Z,24.88
2018-09-04T19:20:05.452Z,24.84
2018-09-04T19:23:08.857Z,24.74
2018-09-04T19:26:12.159Z,24.66
2018-09-04T19:29:15.443Z,24.54
2018-09-04T19:32:19.671Z,24.48
2018-09-04T19:35:23.582Z,24.37
2018-09-04T19:38:26.872Z,24.26
2018-09-04T19:41:30.034Z,24.03
2018-09-04T19:44:33.372Z,23.91
2018-09-04T19:47:37.079Z,23.95
2018-09-04T19:50:40.420Z,23.97
2018-09-04T19:53:43.981Z,23.96
2018-09-04T19:56:47.280Z,23.99
2018-09-04T19:59:50.568Z,23.98
2018-09-04T20:02:53.940Z,23.91
2018-09-04T20:05:57.187Z,23.86
2018-09-04T20:09:00.587Z,23.85
2018-09-04T20:12:03.858Z,23.84
2018-09-04T20:15:11.664Z,23.85
2018-09-04T20:18:15.793Z,23.79
2018-09-04T20:21:19.100Z,23.80
2018-09-04T20:24:22.384Z,23.81
2018-09-04T20:27:25.680Z,23.77
2018-09-04T20:30:28.927Z,23.72
2018-09-04T20:33:32.259Z,23.69
2018-09-04T20:36:35.564Z,23.69
2018-09-04T20:39:38.758Z,23.64
2018-09-04T20:42:42.039Z,23.56
2018-09-04T20:45:45.777Z,23.49
2018-09-04T20:48:49.069Z,23.40
2018-09-04T20:51:52.365Z,23.36
2018-09-04T20:54:55.641Z,23.27
2018-09-04T20:58:10.467Z,23.27
2018-09-04T21:01:25.094Z,23.25
2018-09-04T21:04:39.743Z,23.24
2018-09-04T21:08:00.591Z,23.21
2018-09-04T21:11:03.855Z,23.15
2018-09-04T21:14:07.206Z,23.12
2018-09-04T21:17:11.462Z,23.05
2018-09-04T21:20:14.804Z,23.03
2018-09-04T21:23:18.985Z,22.97
2018-09-04T21:26:22.269Z,22.94
2018-09-04T21:29:43.208Z,22.89
2018-09-04T21:32:46.516Z,22.89
2018-09-04T21:35:49.875Z,22.87
2018-09-04T21:38:53.187Z,22.83
2018-09-04T21:41:56.483Z,22.73
2018-09-04T21:44:59.990Z,22.66
2018-09-04T21:48:03.393Z,22.62
2018-09-04T21:51:06.907Z,22.58
2018-09-04T21:54:10.199Z,22.56
2018-09-04T21:57:13.357Z,22.59
2018-09-04T22:00:22.183Z,22.60
2018-09-04T22:03:25.489Z,22.60
2018-09-04T22:06:28.796Z,22.58
2018-09-04T22:09:36.748Z,22.59
2018-09-04T22:12:39.978Z,22.56
2018-09-04T22:15:43.185Z,22.54
2018-09-04T22:18:47.443Z,22.49
2018-09-04T22:21:50.771Z,22.44
2018-09-04T22:24:54.016Z,22.40
2018-09-04T22:27:57.293Z,22.40
2018-09-04T22:31:00.633Z,22.30
2018-09-04T22:34:03.791Z,22.24
2018-09-04T22:37:07.104Z,22.13
2018-09-04T22:40:10.414Z,22.12
2018-09-04T22:43:14.708Z,22.08
2018-09-04T22:46:19.153Z,22.07
2018-09-04T22:49:22.435Z,22.02
2018-09-04T22:52:30.476Z,21.97
2018-09-04T22:55:34.797Z,21.86
2018-09-04T22:58:38.147Z,21.77
2018-09-04T23:01:41.342Z,21.76
2018-09-04T23:04:44.660Z,21.68
2018-09-04T23:07:48.253Z,21.65
2018-09-04T23:10:51.483Z,21.60
2018-09-04T23:13:54.883Z,21.58
2018-09-04T23:16:58.163Z,21.51
2018-09-04T23:20:01.381Z,21.43
2018-09-04T23:23:04.775Z,21.36
2018-09-04T23:26:08.111Z,21.31
2018-09-04T23:29:11.322Z,21.27
2018-09-04T23:32:14.540Z,21.21
2018-09-04T23:35:18.816Z,21.18
2018-09-04T23:38:23.307Z,21.14
2018-09-04T23:41:26.489Z,21.10
2018-09-04T23:44:30.794Z,20.99
2018-09-04T23:47:34.099Z,20.94
2018-09-04T23:50:37.408Z,20.84
2018-09-04T23:53:40.695Z,20.82
2018-09-04T23:56:43.978Z,20.79
2018-09-04T23:59:47.672Z,20.77
